Time;durP1;ratioP1;P1;durP2;ratioP2;P2;SDS_P1;SDS_P2;PMS_P1;PMS_P2;Temp;Humidity;BMP_temperature;BMP_pressure;BME280_temperature;BME280_humidity;BME280_pressure;Samples;Min_cycle;Max_cycle;Signal;HPM_P1;HPM_P2
2021/07/29 00:02:20;;;;;;;4.20;2.38;;;19.00;99.80;;;;;;5025358;28;20046;-77
2021/07/29 00:04:47;;;;;;;4.30;2.33;;;19.00;99.80;;;;;;5028512;28;20069;-78
2021/07/29 00:07:14;;;;;;;4.75;2.40;;;19.00;99.90;;;;;;5027456;28;20054;-76
2021/07/29 00:09:41;;;;;;;4.88;2.45;;;19.00;99.90;;;;;;5021925;28;20052;-77
2021/07/29 00:12:08;;;;;;;4.57;2.40;;;19.00;99.90;;;;;;5023925;28;20403;-79
2021/07/29 00:14:35;;;;;;;3.97;2.40;;;19.00;99.90;;;;;;5030473;28;20128;-79
2021/07/29 00:17:03;;;;;;;4.50;2.60;;;19.00;99.90;;;;;;5023596;28;20089;-78
2021/07/29 00:19:31;;;;;;;7.18;2.45;;;19.00;99.80;;;;;;5020436;28;20492;-77
2021/07/29 00:21:58;;;;;;;5.05;2.38;;;18.90;99.70;;;;;;5025383;28;20052;-79
2021/07/29 00:24:26;;;;;;;6.32;2.47;;;18.90;99.70;;;;;;5026151;28;20558;-78
2021/07/29 00:26:54;;;;;;;5.45;2.70;;;18.80;99.70;;;;;;5026038;28;20495;-78
2021/07/29 00:29:21;;;;;;;5.03;2.60;;;18.70;99.80;;;;;;5025638;28;20128;-80
2021/07/29 00:31:48;;;;;;;4.95;2.70;;;18.70;99.90;;;;;;5026494;28;20136;-79
2021/07/29 00:34:15;;;;;;;4.25;2.58;;;18.70;99.90;;;;;;5018328;28;20140;-77
2021/07/29 00:36:43;;;;;;;4.10;2.47;;;18.70;99.90;;;;;;5025719;28;20128;-78
2021/07/29 00:39:10;;;;;;;5.80;2.95;;;18.70;99.90;;;;;;5025193;28;20129;-78
2021/07/29 00:41:37;;;;;;;4.05;2.38;;;18.70;99.90;;;;;;5022852;28;20048;-76
2021/07/29 00:44:07;;;;;;;3.97;2.45;;;18.60;99.90;;;;;;5024612;28;20136;-78
2021/07/29 00:46:34;;;;;;;3.80;2.13;;;18.70;99.90;;;;;;5026979;28;20053;-77
2021/07/29 00:49:04;;;;;;;4.80;2.53;;;18.60;99.90;;;;;;5025457;28;20495;-77
2021/07/29 00:51:32;;;;;;;3.80;2.40;;;18.60;99.90;;;;;;5022071;28;20124;-77
2021/07/29 00:54:01;;;;;;;3.92;2.35;;;18.60;99.90;;;;;;5025845;28;20042;-78
2021/07/29 00:56:29;;;;;;;4.70;2.70;;;18.50;99.90;;;;;;5030171;28;20439;-78
2021/07/29 00:58:56;;;;;;;4.53;2.70;;;18.50;99.90;;;;;;5022580;28;20057;-76
2021/07/29 01:01:23;;;;;;;4.63;2.50;;;18.50;99.90;;;;;;5026148;28;20128;-77
2021/07/29 01:03:51;;;;;;;5.13;2.60;;;18.50;99.90;;;;;;5027369;28;20689;-77
2021/07/29 01:06:18;;;;;;;5.60;2.60;;;18.50;99.90;;;;;;5023600;28;20045;-77
2021/07/29 01:09:08;;;;;;;5.80;2.35;;;18.50;99.90;;;;;;5022147;28;20054;-78
2021/07/29 01:11:35;;;;;;;4.60;2.60;;;18.50;99.90;;;;;;5019269;28;20095;-78
2021/07/29 01:14:02;;;;;;;4.63;2.50;;;18.50;99.90;;;;;;5025390;28;20049;-78
2021/07/29 01:16:29;;;;;;;5.35;2.30;;;18.40;99.90;;;;;;5018097;28;20073;-78
2021/07/29 01:18:57;;;;;;;4.25;2.47;;;18.40;99.90;;;;;;5025736;28;20388;-77
2021/07/29 01:21:28;;;;;;;5.88;2.78;;;18.40;99.90;;;;;;5023854;28;20418;-78
2021/07/29 01:23:56;;;;;;;5.45;2.50;;;18.30;99.90;;;;;;5025612;28;20053;-79
2021/07/29 01:26:23;;;;;;;4.32;2.50;;;18.30;99.90;;;;;;5017626;28;20129;-78
2021/07/29 01:28:50;;;;;;;4.38;2.50;;;18.30;99.90;;;;;;5025296;28;20092;-78
2021/07/29 01:31:17;;;;;;;5.68;2.97;;;18.20;99.90;;;;;;5023368;28;20084;-76
2021/07/29 01:33:44;;;;;;;4.93;2.78;;;18.20;99.90;;;;;;5023298;28;20133;-75
2021/07/29 01:36:11;;;;;;;6.53;2.90;;;18.20;99.90;;;;;;5023210;28;20128;-77
2021/07/29 01:38:40;;;;;;;4.85;2.90;;;18.10;99.90;;;;;;5025140;28;20045;-80
2021/07/29 01:41:07;;;;;;;4.72;2.72;;;18.00;99.90;;;;;;5023806;28;20050;-79
2021/07/29 01:43:34;;;;;;;5.00;2.60;;;17.90;99.90;;;;;;5022244;28;20403;-78
2021/07/29 01:46:02;;;;;;;5.18;2.75;;;17.90;99.90;;;;;;5030821;28;20045;-78
2021/07/29 01:48:31;;;;;;;5.60;3.00;;;17.90;99.90;;;;;;5037287;28;20069;-80
2021/07/29 01:50:59;;;;;;;5.97;2.60;;;17.90;99.90;;;;;;5032178;28;20486;-77
2021/07/29 01:53:26;;;;;;;5.10;2.90;;;17.90;99.90;;;;;;5024694;28;20155;-78
2021/07/29 01:55:54;;;;;;;5.28;3.08;;;17.90;99.90;;;;;;5025190;28;20384;-76
2021/07/29 01:58:21;;;;;;;4.90;2.60;;;17.90;99.90;;;;;;5025619;28;20038;-79
2021/07/29 02:00:51;;;;;;;5.60;2.90;;;17.90;99.90;;;;;;5024006;28;20566;-77
2021/07/29 02:03:18;;;;;;;4.68;2.97;;;18.00;99.90;;;;;;5019022;28;20137;-78
2021/07/29 02:05:45;;;;;;;5.40;2.70;;;17.90;99.90;;;;;;5020440;28;20133;-77
2021/07/29 02:08:12;;;;;;;4.53;2.95;;;17.90;99.90;;;;;;5023288;28;20059;-79
2021/07/29 02:10:39;;;;;;;5.13;2.63;;;17.80;99.90;;;;;;5022068;28;20045;-79
2021/07/29 02:13:07;;;;;;;6.75;3.30;;;17.70;99.90;;;;;;5020582;28;20052;-77
2021/07/29 02:15:34;;;;;;;8.48;2.90;;;17.70;99.90;;;;;;5024445;28;20057;-77
2021/07/29 02:18:03;;;;;;;6.13;3.17;;;17.60;99.90;;;;;;5030095;28;20080;-79
2021/07/29 02:20:31;;;;;;;4.72;3.00;;;17.40;99.90;;;;;;5039496;28;20034;-79
2021/07/29 02:22:58;;;;;;;5.03;3.10;;;17.40;99.90;;;;;;5035400;28;20198;-78
2021/07/29 02:25:25;;;;;;;4.10;2.72;;;17.30;99.90;;;;;;5037390;28;20140;-77
2021/07/29 02:27:53;;;;;;;5.40;2.72;;;17.30;99.90;;;;;;5029796;28;20050;-78
2021/07/29 02:30:21;;;;;;;5.40;2.55;;;17.30;99.90;;;;;;5036349;28;20504;-78
2021/07/29 02:32:48;;;;;;;7.03;2.55;;;17.40;99.90;;;;;;5031594;28;20120;-79
2021/07/29 02:35:15;;;;;;;5.13;2.92;;;17.30;99.90;;;;;;5032549;28;20133;-77
2021/07/29 02:37:42;;;;;;;5.90;3.00;;;17.30;99.90;;;;;;5024650;28;20411;-78
2021/07/29 02:40:11;;;;;;;5.65;3.50;;;17.20;99.90;;;;;;5024098;28;20064;-76
2021/07/29 02:42:38;;;;;;;6.68;3.22;;;17.20;99.90;;;;;;5024876;28;20042;-78
2021/07/29 02:45:06;;;;;;;5.35;3.38;;;17.10;99.90;;;;;;5040772;28;20073;-77
2021/07/29 02:47:35;;;;;;;7.22;3.72;;;17.00;99.90;;;;;;5041849;28;20124;-76
2021/07/29 02:50:02;;;;;;;6.53;4.00;;;17.00;99.90;;;;;;5026285;28;20462;-80
2021/07/29 02:52:29;;;;;;;5.13;3.33;;;17.00;99.90;;;;;;5028474;28;20210;-79
2021/07/29 02:54:56;;;;;;;6.70;3.60;;;17.00;99.90;;;;;;5024400;28;20499;-78
2021/07/29 02:57:23;;;;;;;5.32;3.22;;;17.00;99.90;;;;;;5022163;28;20128;-79
2021/07/29 02:59:50;;;;;;;5.15;3.50;;;17.00;99.90;;;;;;5023273;28;20143;-79
2021/07/29 03:02:17;;;;;;;5.78;3.67;;;17.00;99.90;;;;;;5031913;28;20052;-79
2021/07/29 03:04:45;;;;;;;5.75;3.30;;;17.00;99.90;;;;;;5030486;28;20657;-78
2021/07/29 03:07:12;;;;;;;6.25;3.17;;;17.00;99.90;;;;;;5017399;28;20052;-79
2021/07/29 03:09:39;;;;;;;6.32;3.13;;;17.00;99.90;;;;;;5022190;28;20049;-78
2021/07/29 03:12:06;;;;;;;5.20;2.67;;;17.00;99.90;;;;;;5024977;28;20056;-79
2021/07/29 03:14:33;;;;;;;6.93;3.05;;;17.00;99.90;;;;;;5022360;28;20117;-77
2021/07/29 03:17:00;;;;;;;5.38;2.63;;;17.10;99.90;;;;;;5022000;28;20558;-80
2021/07/29 03:19:29;;;;;;;4.75;2.65;;;17.10;99.90;;;;;;5023554;28;20049;-78
2021/07/29 03:21:57;;;;;;;4.18;2.65;;;17.20;99.90;;;;;;5029474;28;20050;-78
2021/07/29 03:24:24;;;;;;;5.30;2.85;;;17.30;99.90;;;;;;5022517;28;20543;-79
2021/07/29 03:26:51;;;;;;;4.85;2.95;;;17.30;99.90;;;;;;5022496;28;20110;-78
2021/07/29 03:29:18;;;;;;;5.28;2.95;;;17.40;99.90;;;;;;5028343;28;20060;-79
2021/07/29 03:31:45;;;;;;;6.18;3.35;;;17.40;99.90;;;;;;5036127;28;20105;-78
2021/07/29 03:34:12;;;;;;;6.57;3.25;;;17.40;99.90;;;;;;5025881;28;20084;-79
2021/07/29 03:36:39;;;;;;;6.40;3.42;;;17.30;99.90;;;;;;5038009;28;20102;-79
2021/07/29 03:39:07;;;;;;;5.22;3.17;;;17.30;99.90;;;;;;5039013;28;20136;-80
2021/07/29 03:41:34;;;;;;;4.95;3.17;;;17.20;99.90;;;;;;5034724;28;20106;-78
2021/07/29 03:44:01;;;;;;;4.80;2.70;;;17.20;99.90;;;;;;5031639;28;20105;-80
2021/07/29 03:46:28;;;;;;;5.78;3.10;;;17.10;99.90;;;;;;5036324;28;20129;-80
2021/07/29 03:48:57;;;;;;;5.47;2.85;;;17.10;99.90;;;;;;5038684;28;20140;-79
2021/07/29 03:51:25;;;;;;;4.65;2.97;;;17.10;99.90;;;;;;5039042;28;20037;-79
2021/07/29 03:53:52;;;;;;;5.72;3.00;;;17.10;99.90;;;;;;5030254;28;20406;-79
2021/07/29 03:56:22;;;;;;;5.13;2.75;;;17.10;99.90;;;;;;5040311;28;20132;-77
2021/07/29 03:58:49;;;;;;;4.82;2.83;;;17.00;99.90;;;;;;5041917;28;20073;-79
2021/07/29 04:01:17;;;;;;;5.15;3.03;;;17.00;99.90;;;;;;5035676;28;20084;-78
2021/07/29 04:03:44;;;;;;;5.13;3.22;;;17.00;99.90;;;;;;5034887;28;20056;-79
2021/07/29 04:06:11;;;;;;;6.05;3.33;;;17.00;99.90;;;;;;5037554;28;20132;-76
2021/07/29 04:08:38;;;;;;;5.30;3.20;;;17.10;99.90;;;;;;5026571;28;20195;-77
2021/07/29 04:11:07;;;;;;;4.82;3.00;;;17.10;99.90;;;;;;5031092;28;20136;-79
2021/07/29 04:13:35;;;;;;;5.88;3.20;;;17.10;99.90;;;;;;5032147;28;20083;-77
2021/07/29 04:16:03;;;;;;;5.00;3.28;;;17.20;99.90;;;;;;5024537;28;20053;-79
2021/07/29 04:18:32;;;;;;;6.97;3.33;;;17.20;99.90;;;;;;5032283;28;20053;-81
2021/07/29 04:21:00;;;;;;;4.68;2.90;;;17.30;99.90;;;;;;5031204;28;20057;-78
2021/07/29 04:23:27;;;;;;;5.30;2.80;;;17.40;99.90;;;;;;5021894;28;20113;-77
2021/07/29 04:25:54;;;;;;;4.93;3.20;;;17.40;99.90;;;;;;5032724;28;20132;-79
2021/07/29 04:28:21;;;;;;;7.10;3.20;;;17.40;99.90;;;;;;5020163;28;20157;-78
2021/07/29 04:30:49;;;;;;;5.35;2.80;;;17.50;99.90;;;;;;5016304;28;20056;-79
2021/07/29 04:33:16;;;;;;;6.53;3.42;;;17.50;99.90;;;;;;5019023;28;20137;-77
2021/07/29 04:35:43;;;;;;;5.45;3.20;;;17.50;99.90;;;;;;5026133;28;20065;-78
2021/07/29 04:38:11;;;;;;;6.38;3.40;;;17.50;99.90;;;;;;5025504;28;20073;-78
2021/07/29 04:40:38;;;;;;;7.10;3.65;;;17.50;99.90;;;;;;5025901;28;20072;-78
2021/07/29 04:43:05;;;;;;;5.70;3.45;;;17.40;99.90;;;;;;5025446;28;20125;-78
2021/07/29 04:45:32;;;;;;;6.10;3.17;;;17.30;99.90;;;;;;5025346;28;20145;-79
2021/07/29 04:48:00;;;;;;;5.63;3.28;;;17.40;99.90;;;;;;5026209;28;20106;-78
2021/07/29 04:50:27;;;;;;;5.40;3.35;;;17.40;99.90;;;;;;5024937;28;20133;-78
2021/07/29 04:52:55;;;;;;;5.32;2.92;;;17.40;99.90;;;;;;5026125;28;20106;-79
2021/07/29 04:55:22;;;;;;;7.05;3.28;;;17.40;99.90;;;;;;5025657;28;20092;-78
2021/07/29 04:57:49;;;;;;;6.13;3.13;;;17.40;99.90;;;;;;5024071;28;20480;-78
2021/07/29 05:00:16;;;;;;;5.90;3.53;;;17.40;99.90;;;;;;5030791;28;20046;-79
2021/07/29 05:02:43;;;;;;;5.68;3.35;;;17.40;99.90;;;;;;5035831;28;20076;-78
2021/07/29 05:05:12;;;;;;;4.90;3.17;;;17.50;99.90;;;;;;5026051;28;20125;-79
2021/07/29 05:07:39;;;;;;;6.50;3.90;;;17.50;99.90;;;;;;5021560;28;20137;-78
2021/07/29 05:10:08;;;;;;;6.07;3.58;;;17.50;99.90;;;;;;5025432;28;20133;-78
2021/07/29 05:12:35;;;;;;;5.60;3.25;;;17.50;99.90;;;;;;5024995;28;20096;-76
2021/07/29 05:15:02;;;;;;;5.45;3.80;;;17.60;99.90;;;;;;5024806;28;20074;-77
2021/07/29 05:17:29;;;;;;;6.20;3.38;;;17.60;99.90;;;;;;5036990;28;20076;-78
2021/07/29 05:19:56;;;;;;;6.05;3.35;;;17.70;99.90;;;;;;5044367;28;20109;-78
2021/07/29 05:22:24;;;;;;;5.20;3.05;;;17.70;99.90;;;;;;5044133;28;20072;-79
2021/07/29 05:24:51;;;;;;;4.97;3.17;;;17.80;99.90;;;;;;5043866;28;20068;-78
2021/07/29 05:27:18;;;;;;;5.40;3.10;;;17.80;99.90;;;;;;5044835;28;20129;-80
2021/07/29 05:29:45;;;;;;;6.50;3.50;;;17.90;99.90;;;;;;5044619;28;20152;-77
2021/07/29 05:32:12;;;;;;;5.38;3.55;;;17.90;99.90;;;;;;5044919;28;20129;-78
2021/07/29 05:34:39;;;;;;;6.65;3.60;;;18.00;99.90;;;;;;5042347;28;20124;-79
2021/07/29 05:37:06;;;;;;;5.57;3.40;;;18.00;99.90;;;;;;5045105;28;20443;-78
2021/07/29 05:39:35;;;;;;;5.80;3.40;;;18.00;99.90;;;;;;5044593;28;20083;-78
2021/07/29 05:42:03;;;;;;;5.72;3.42;;;18.00;99.90;;;;;;5043803;28;20076;-75
2021/07/29 05:44:30;;;;;;;5.05;3.17;;;18.00;99.90;;;;;;5044069;28;20069;-79
2021/07/29 05:46:57;;;;;;;5.95;3.50;;;18.00;99.90;;;;;;5043851;28;20132;-79
2021/07/29 05:49:24;;;;;;;5.10;3.38;;;18.00;99.90;;;;;;5043499;28;20113;-79
2021/07/29 05:51:51;;;;;;;5.57;3.58;;;18.10;99.90;;;;;;5044220;28;20077;-77
2021/07/29 05:54:18;;;;;;;5.57;3.47;;;18.10;99.90;;;;;;5043564;28;20102;-77
2021/07/29 05:56:47;;;;;;;5.55;3.28;;;18.10;99.90;;;;;;5040469;28;20081;-77
2021/07/29 05:59:14;;;;;;;5.93;3.55;;;18.10;99.90;;;;;;5023999;28;20092;-81
2021/07/29 06:01:41;;;;;;;5.40;3.40;;;18.10;99.90;;;;;;5024483;28;20101;-78
2021/07/29 06:04:08;;;;;;;6.20;3.50;;;18.20;99.90;;;;;;5041819;28;20110;-78
2021/07/29 06:06:35;;;;;;;5.70;3.38;;;18.20;99.90;;;;;;5043855;28;20052;-78
2021/07/29 06:09:02;;;;;;;6.03;2.97;;;18.30;99.90;;;;;;5043869;28;20053;-80
2021/07/29 06:11:29;;;;;;;5.95;3.00;;;18.30;99.90;;;;;;5042143;28;20073;-76
2021/07/29 06:13:58;;;;;;;5.28;3.10;;;18.30;99.90;;;;;;5042047;28;20077;-77
2021/07/29 06:16:25;;;;;;;8.57;3.30;;;18.40;99.90;;;;;;5044191;28;20069;-78
2021/07/29 06:19:04;;;;;;;5.90;3.25;;;18.40;99.90;;;;;;5035853;28;20128;-77
2021/07/29 06:21:32;;;;;;;6.57;3.22;;;18.50;99.90;;;;;;5042680;28;20128;-77
2021/07/29 06:23:59;;;;;;;5.22;3.20;;;18.60;99.90;;;;;;5034219;28;20056;-77
2021/07/29 06:26:26;;;;;;;4.97;2.80;;;18.60;99.60;;;;;;5013907;28;20117;-78
2021/07/29 06:28:53;;;;;;;5.82;3.05;;;18.70;99.80;;;;;;5013183;28;20411;-78
2021/07/29 06:31:21;;;;;;;6.80;2.90;;;18.70;99.60;;;;;;5013820;28;20569;-78
2021/07/29 06:33:48;;;;;;;4.30;2.65;;;18.80;99.70;;;;;;5013874;28;20133;-77
2021/07/29 06:36:15;;;;;;;5.28;2.90;;;18.90;99.40;;;;;;5014356;28;20048;-76
2021/07/29 06:38:42;;;;;;;4.38;2.85;;;18.90;99.40;;;;;;5013836;28;20092;-75
2021/07/29 06:41:10;;;;;;;4.32;2.83;;;19.00;99.10;;;;;;5032578;28;20120;-77
2021/07/29 06:43:37;;;;;;;4.55;2.90;;;19.00;99.00;;;;;;5035832;28;20136;-76
2021/07/29 06:46:05;;;;;;;4.38;2.70;;;19.10;99.00;;;;;;5043482;28;20539;-76
2021/07/29 06:48:34;;;;;;;5.85;3.00;;;19.10;99.00;;;;;;5039308;28;20137;-75
2021/07/29 06:51:05;;;;;;;4.93;2.63;;;19.20;98.80;;;;;;5038813;28;20132;-79
2021/07/29 06:53:32;;;;;;;4.13;2.60;;;19.30;98.90;;;;;;5041779;28;20085;-78
2021/07/29 06:56:00;;;;;;;5.18;2.67;;;19.30;98.80;;;;;;5022287;28;20053;-78
2021/07/29 06:58:27;;;;;;;5.15;2.95;;;19.40;98.70;;;;;;5021383;28;20049;-78
2021/07/29 07:00:55;;;;;;;5.53;3.25;;;19.40;98.50;;;;;;5021049;28;20456;-76
2021/07/29 07:03:22;;;;;;;4.95;2.78;;;19.40;98.40;;;;;;5021173;28;20133;-77
2021/07/29 07:05:50;;;;;;;4.32;2.80;;;19.40;98.30;;;;;;5019461;28;20567;-78
2021/07/29 07:08:17;;;;;;;6.07;2.67;;;19.40;98.20;;;;;;5017327;28;20140;-79
2021/07/29 07:10:44;;;;;;;6.40;2.90;;;19.40;98.10;;;;;;5016948;28;20058;-78
2021/07/29 07:13:11;;;;;;;5.35;2.72;;;19.40;98.40;;;;;;5018276;28;20165;-76
2021/07/29 07:15:38;;;;;;;7.70;2.85;;;19.40;98.30;;;;;;5019760;28;20562;-77
2021/07/29 07:18:05;;;;;;;4.30;2.60;;;19.40;98.20;;;;;;5022928;28;20128;-78
2021/07/29 07:20:32;;;;;;;3.65;2.38;;;19.50;98.10;;;;;;5020759;28;20474;-79
2021/07/29 07:23:00;;;;;;;4.97;2.50;;;19.50;97.90;;;;;;5017484;28;20129;-76
2021/07/29 07:25:27;;;;;;;5.30;2.80;;;19.50;97.50;;;;;;5016605;28;20041;-76
2021/07/29 07:27:54;;;;;;;4.55;2.88;;;19.50;97.20;;;;;;5017836;28;20509;-78
2021/07/29 07:30:22;;;;;;;5.80;2.88;;;19.60;97.00;;;;;;5016539;28;20136;-78
2021/07/29 07:32:49;;;;;;;4.13;2.53;;;19.70;97.20;;;;;;5016934;28;20129;-77
2021/07/29 07:35:16;;;;;;;4.78;2.60;;;19.70;97.00;;;;;;5026119;28;20032;-75
2021/07/29 07:37:43;;;;;;;4.50;2.60;;;19.80;96.60;;;;;;5038221;28;20076;-77
2021/07/29 07:40:13;;;;;;;5.95;2.67;;;19.80;96.30;;;;;;5036838;28;20554;-78
2021/07/29 07:42:40;;;;;;;4.30;2.55;;;19.80;96.00;;;;;;5037649;28;20047;-77
2021/07/29 07:45:07;;;;;;;4.60;2.25;;;19.90;96.20;;;;;;5037590;28;20052;-77
2021/07/29 07:47:35;;;;;;;5.00;2.70;;;20.00;96.00;;;;;;5036762;28;20132;-77
2021/07/29 07:50:02;;;;;;;4.55;2.60;;;20.00;96.10;;;;;;5035055;28;20056;-77
2021/07/29 07:52:29;;;;;;;4.10;2.22;;;20.10;95.90;;;;;;5036477;28;20041;-75
2021/07/29 07:54:57;;;;;;;3.88;2.33;;;20.10;95.70;;;;;;5036987;28;20414;-77
2021/07/29 07:57:26;;;;;;;4.30;2.50;;;20.20;95.40;;;;;;5035215;28;20095;-77
2021/07/29 07:59:56;;;;;;;3.83;2.30;;;20.20;95.50;;;;;;5036767;28;20132;-76
2021/07/29 08:02:23;;;;;;;4.85;2.38;;;20.30;95.40;;;;;;5037325;28;20045;-77
2021/07/29 08:04:50;;;;;;;5.68;2.47;;;20.30;94.10;;;;;;5036163;28;20050;-78
2021/07/29 08:07:17;;;;;;;4.15;2.60;;;20.40;94.50;;;;;;5035762;28;20155;-76
2021/07/29 08:09:44;;;;;;;4.30;2.50;;;20.40;94.50;;;;;;5035629;28;20197;-75
2021/07/29 08:12:11;;;;;;;4.65;2.35;;;20.50;93.80;;;;;;5022651;28;20076;-77
2021/07/29 08:14:39;;;;;;;4.40;2.30;;;20.60;93.40;;;;;;5039525;28;20109;-77
2021/07/29 08:17:07;;;;;;;5.22;2.45;;;20.70;93.80;;;;;;5037051;28;20085;-77
2021/07/29 08:19:34;;;;;;;4.18;2.55;;;20.80;93.50;;;;;;5030376;28;20128;-77
2021/07/29 08:22:01;;;;;;;4.35;2.70;;;20.90;92.70;;;;;;5033732;28;20049;-77
2021/07/29 08:24:28;;;;;;;4.00;2.20;;;20.90;92.40;;;;;;5015863;28;20129;-79
2021/07/29 08:26:57;;;;;;;4.10;2.40;;;21.00;92.70;;;;;;5020531;28;20152;-78
2021/07/29 08:29:24;;;;;;;6.15;2.60;;;21.10;92.70;;;;;;5027880;28;20057;-77
2021/07/29 08:31:52;;;;;;;4.78;2.70;;;21.30;92.00;;;;;;5025156;28;20195;-78
2021/07/29 08:34:19;;;;;;;6.63;2.60;;;21.30;91.40;;;;;;5018116;28;20420;-76
2021/07/29 08:36:46;;;;;;;4.65;2.60;;;21.40;91.70;;;;;;5015457;28;20458;-76
2021/07/29 08:39:13;;;;;;;4.07;2.50;;;21.50;91.40;;;;;;5015769;28;20045;-79
2021/07/29 08:41:42;;;;;;;4.50;2.55;;;21.60;91.10;;;;;;5026401;28;20084;-79
2021/07/29 08:44:09;;;;;;;4.63;2.83;;;21.60;91.10;;;;;;5035521;28;20049;-77
2021/07/29 08:46:37;;;;;;;4.15;2.40;;;21.60;90.80;;;;;;5027552;28;20049;-77
2021/07/29 08:49:05;;;;;;;5.32;2.58;;;21.60;91.10;;;;;;5015105;28;20073;-77
2021/07/29 08:51:32;;;;;;;4.28;2.50;;;21.60;90.80;;;;;;5017604;28;20133;-80
2021/07/29 08:54:04;;;;;;;6.28;2.70;;;21.60;90.80;;;;;;5020828;28;20140;-78
2021/07/29 08:56:31;;;;;;;5.88;3.10;;;21.70;90.90;;;;;;5031339;28;20041;-79
2021/07/29 08:58:58;;;;;;;4.47;2.83;;;21.70;89.90;;;;;;5020462;28;20124;-79
2021/07/29 09:01:43;;;;;;;5.20;2.53;;;21.60;90.20;;;;;;5022189;28;20056;-79
2021/07/29 09:04:13;;;;;;;5.75;2.63;;;21.60;89.70;;;;;;5014977;28;20052;-79
2021/07/29 09:06:57;;;;;;;6.90;2.78;;;21.60;89.70;;;;;;5033733;28;20045;-76
2021/07/29 09:09:39;;;;;;;;;;;21.60;89.20;;;;;;5035106;28;20049;-77
2021/07/29 09:12:18;;;;;;;4.80;2.60;;;21.60;89.60;;;;;;5034898;28;19921;-79
2021/07/29 09:14:46;;;;;;;7.00;2.42;;;21.70;89.10;;;;;;5032906;28;20054;-77
2021/07/29 09:17:13;;;;;;;4.35;2.60;;;21.70;88.70;;;;;;5034460;28;20132;-78
2021/07/29 09:19:44;;;;;;;4.13;2.53;;;21.80;88.50;;;;;;5034927;28;20136;-78
2021/07/29 09:22:16;;;;;;;4.63;2.40;;;21.80;89.00;;;;;;5035597;28;20049;-76
2021/07/29 09:25:02;;;;;;;5.15;2.80;;;21.90;87.90;;;;;;5032176;28;20136;-77
2021/07/29 09:27:46;;;;;;;4.80;2.47;;;21.90;88.70;;;;;;5026238;28;20049;-79
2021/07/29 09:30:19;;;;;;;5.25;2.67;;;21.90;87.70;;;;;;5019569;28;20138;-76
2021/07/29 09:32:59;;;;;;;4.90;2.83;;;21.90;85.80;;;;;;5014993;28;20440;-80
2021/07/29 09:35:43;;;;;;;5.88;2.60;;;21.90;85.60;;;;;;5024016;28;20045;-79
2021/07/29 09:38:23;;;;;;;4.68;2.60;;;21.90;86.00;;;;;;5031545;28;20053;-79
2021/07/29 09:40:53;;;;;;;4.93;2.65;;;21.90;86.00;;;;;;5031786;28;20517;-79
2021/07/29 09:43:23;;;;;;;5.05;2.72;;;21.90;84.50;;;;;;5028893;28;20067;-80
2021/07/29 09:45:52;;;;;;;4.35;2.38;;;21.90;85.10;;;;;;5011612;28;20754;-79
2021/07/29 09:48:22;;;;;;;7.30;2.78;;;22.00;86.20;;;;;;5011253;28;20585;-78
2021/07/29 09:50:52;;;;;;;6.75;3.20;;;22.10;84.60;;;;;;5011789;28;20103;-79
2021/07/29 09:53:20;;;;;;;4.90;2.67;;;22.10;84.20;;;;;;5029999;28;20129;-79
2021/07/29 09:55:47;;;;;;;6.10;3.22;;;22.10;82.20;;;;;;5031261;28;20076;-79
2021/07/29 09:58:15;;;;;;;5.32;2.97;;;22.00;80.70;;;;;;5031124;28;20045;-79
2021/07/29 10:00:42;;;;;;;4.25;2.65;;;22.00;81.90;;;;;;5030417;28;20073;-77
2021/07/29 10:03:10;;;;;;;4.30;2.40;;;22.00;81.90;;;;;;5024582;28;20371;-80
2021/07/29 10:05:52;;;;;;;4.97;2.53;;;22.00;81.50;;;;;;5017358;28;20042;-77
2021/07/29 10:08:27;;;;;;;4.38;2.35;;;22.00;81.20;;;;;;5030759;28;20501;-78
2021/07/29 10:10:55;;;;;;;4.32;2.53;;;22.00;82.20;;;;;;5031106;28;20143;-78
2021/07/29 10:13:35;;;;;;;4.72;2.83;;;22.10;81.00;;;;;;5030809;28;20518;-80
2021/07/29 10:16:02;;;;;;;5.20;2.88;;;22.20;79.40;;;;;;5031031;28;20120;-81
2021/07/29 10:19:07;;;;;;;6.07;2.70;;;22.20;79.60;;;;;;5040014;28;20499;-79
2021/07/29 10:21:38;;;;;;;6.80;3.00;;;22.30;78.40;;;;;;5030432;28;20064;-76
2021/07/29 10:24:08;;;;;;;6.03;2.90;;;22.30;78.90;;;;;;5028054;28;20054;-77
2021/07/29 10:27:09;;;;;;;5.95;2.50;;;22.40;78.50;;;;;;5030329;28;20057;-79
2021/07/29 10:29:37;;;;;;;4.53;2.63;;;22.40;78.30;;;;;;5028129;28;20480;-76
2021/07/29 10:32:09;;;;;;;4.63;2.90;;;22.60;78.50;;;;;;5023574;28;20043;-80
2021/07/29 10:34:36;;;;;;;4.72;2.83;;;22.70;79.30;;;;;;5030120;28;20566;-78
2021/07/29 10:37:06;;;;;;;5.57;3.08;;;22.80;80.10;;;;;;5030748;28;20081;-79
2021/07/29 10:39:59;;;;;;;5.15;2.90;;;22.90;77.40;;;;;;5033340;28;20513;-81
2021/07/29 10:42:27;;;;;;;;;;;22.90;75.00;;;;;;5031084;28;20092;-80
2021/07/29 10:44:54;;;;;;;4.38;2.53;;;22.90;74.30;;;;;;5030059;28;19995;-79
2021/07/29 10:47:43;;;;;;;4.90;2.92;;;22.90;74.50;;;;;;5038650;28;20050;-80
2021/07/29 10:50:19;;;;;;;4.93;2.63;;;22.90;74.00;;;;;;5040062;28;20065;-79
2021/07/29 10:52:52;;;;;;;4.70;2.90;;;22.80;76.80;;;;;;5040722;28;20076;-80
2021/07/29 10:55:22;;;;;;;5.28;2.92;;;22.90;75.00;;;;;;5030572;28;20046;-80
2021/07/29 10:58:01;;;;;;;4.25;2.55;;;22.90;74.80;;;;;;5025899;28;20091;-79
2021/07/29 11:00:28;;;;;;;5.60;3.30;;;23.00;74.90;;;;;;5031440;28;20140;-79
2021/07/29 11:02:56;;;;;;;5.00;2.80;;;23.00;74.90;;;;;;5030379;28;20052;-79
2021/07/29 11:05:30;;;;;;;5.45;3.00;;;23.10;74.00;;;;;;5030627;28;20045;-79
2021/07/29 11:07:58;;;;;;;4.93;2.70;;;23.10;73.20;;;;;;5024080;28;20072;-80
2021/07/29 11:10:29;;;;;;;7.00;3.45;;;23.20;72.60;;;;;;5010454;28;20054;-78
2021/07/29 11:12:56;;;;;;;5.18;2.78;;;23.20;71.30;;;;;;5011110;28;20407;-79
2021/07/29 11:15:24;;;;;;;4.45;2.67;;;23.20;71.60;;;;;;5023163;28;20132;-79
2021/07/29 11:17:50;;;;;;;5.40;3.25;;;23.20;68.40;;;;;;5030184;28;20053;-78
2021/07/29 11:20:28;;;;;;;4.82;2.75;;;23.20;66.90;;;;;;5030036;28;20064;-78
2021/07/29 11:22:56;;;;;;;5.13;2.80;;;23.20;68.10;;;;;;5033318;28;20055;-77
2021/07/29 11:25:24;;;;;;;5.18;2.78;;;23.20;69.10;;;;;;5030781;28;20406;-79
2021/07/29 11:27:51;;;;;;;4.80;2.85;;;23.30;69.20;;;;;;5030056;28;20056;-77
2021/07/29 11:30:18;;;;;;;4.80;2.80;;;23.40;68.60;;;;;;5028651;28;20069;-81
2021/07/29 11:32:46;;;;;;;4.28;2.80;;;23.50;67.80;;;;;;5029766;28;20411;-79
2021/07/29 11:35:17;;;;;;;5.30;2.72;;;23.60;68.30;;;;;;5034363;28;20103;-78
2021/07/29 11:37:46;;;;;;;4.35;2.70;;;23.60;68.20;;;;;;5033997;28;20053;-80
2021/07/29 11:40:21;;;;;;;5.22;2.90;;;23.70;67.80;;;;;;5033807;28;20137;-79
2021/07/29 11:42:50;;;;;;;6.90;3.22;;;23.80;67.30;;;;;;5032178;28;20132;-80
2021/07/29 11:45:27;;;;;;;5.93;3.10;;;23.90;67.00;;;;;;5027437;28;20145;-80
2021/07/29 11:47:54;;;;;;;5.15;3.00;;;23.80;67.10;;;;;;5023372;28;20052;-80
2021/07/29 11:50:38;;;;;;;5.10;2.95;;;23.90;66.10;;;;;;5014407;28;20136;-80
2021/07/29 11:53:06;;;;;;;4.90;2.95;;;23.90;66.50;;;;;;5013901;28;20128;-77
2021/07/29 11:55:34;;;;;;;5.65;3.03;;;24.00;64.60;;;;;;5013746;28;20050;-79
2021/07/29 11:58:11;;;;;;;5.88;3.10;;;24.00;65.20;;;;;;5013497;28;20081;-80
2021/07/29 12:00:39;;;;;;;5.18;3.15;;;24.10;65.90;;;;;;5013532;28;20492;-79
2021/07/29 12:03:06;;;;;;;5.22;2.92;;;24.10;64.90;;;;;;5016940;28;20109;-79
2021/07/29 12:05:35;;;;;;;4.45;2.95;;;24.20;63.20;;;;;;5022968;28;20134;-80
2021/07/29 12:08:04;;;;;;;5.35;2.92;;;24.20;62.70;;;;;;5023274;28;20088;-80
2021/07/29 12:10:32;;;;;;;4.75;2.70;;;24.20;63.50;;;;;;5013291;28;20135;-79
2021/07/29 12:13:00;;;;;;;5.68;2.60;;;24.30;65.70;;;;;;5013066;28;20054;-79
2021/07/29 12:15:28;;;;;;;4.40;2.80;;;24.30;65.60;;;;;;5013505;28;20476;-81
2021/07/29 12:18:14;;;;;;;5.47;2.88;;;24.30;65.90;;;;;;5014441;28;20056;-79
2021/07/29 12:20:42;;;;;;;5.30;3.30;;;24.30;65.70;;;;;;5018871;28;20054;-81
2021/07/29 12:23:11;;;;;;;6.43;3.17;;;24.20;64.70;;;;;;5019346;28;20078;-79
2021/07/29 12:25:38;;;;;;;4.68;2.90;;;24.20;63.10;;;;;;5013157;28;20150;-79
2021/07/29 12:28:05;;;;;;;5.05;2.95;;;24.40;61.50;;;;;;5013973;28;20205;-80
2021/07/29 12:30:41;;;;;;;5.00;3.15;;;24.40;62.60;;;;;;5012868;28;20133;-78
2021/07/29 12:33:13;;;;;;;5.15;2.95;;;24.50;61.60;;;;;;5020484;28;20477;-80
2021/07/29 12:35:42;;;;;;;5.45;3.20;;;24.50;62.30;;;;;;5032589;28;20386;-81
2021/07/29 12:38:10;;;;;;;4.40;3.15;;;24.50;62.00;;;;;;5029833;28;20053;-80
2021/07/29 12:40:37;;;;;;;5.07;3.10;;;24.50;62.10;;;;;;5030557;28;20056;-79
2021/07/29 12:43:25;;;;;;;5.05;2.78;;;24.50;62.30;;;;;;5012999;28;20045;-77
2021/07/29 12:45:56;;;;;;;4.00;2.70;;;24.60;63.00;;;;;;5012862;28;20045;-78
2021/07/29 12:48:24;;;;;;;5.57;2.97;;;24.60;62.80;;;;;;5015002;28;20105;-78
2021/07/29 12:50:52;;;;;;;4.70;2.80;;;24.70;62.70;;;;;;5020268;28;20137;-79
2021/07/29 12:53:19;;;;;;;5.22;3.28;;;24.80;63.40;;;;;;5017245;28;20073;-80
2021/07/29 12:55:49;;;;;;;5.03;3.40;;;24.90;63.30;;;;;;5013582;28;20570;-80
2021/07/29 12:58:17;;;;;;;4.82;2.90;;;25.00;62.30;;;;;;5012748;28;20472;-80